sensor_id;sensor_type;location;lat;lon;timestamp;P1;durP1;ratioP1;P2;durP2;ratioP2
31596;SDS011;18201;50.978;7.034;2023-02-15T09:03:49;37.25;;;22.67;;
31596;SDS011;18201;50.978;7.034;2023-02-15T10:25:47;27.95;;;17.42;;
31596;SDS011;18201;50.978;7.034;2023-02-15T10:26:26;27.05;;;17.33;;
31596;SDS011;18201;50.978;7.034;2023-02-15T10:27:07;27.83;;;18.63;;
31596;SDS011;18201;50.978;7.034;2023-02-15T10:27:44;25.52;;;18.55;;
31596;SDS011;18201;50.978;7.034;2023-02-15T10:28:18;28.02;;;18.50;;
31596;SDS011;18201;50.978;7.034;2023-02-15T10:28:50;23.73;;;17.00;;
31596;SDS011;18201;50.978;7.034;2023-02-15T10:29:27;22.60;;;16.88;;
31596;SDS011;18201;50.978;7.034;2023-02-15T10:30:07;23.08;;;17.25;;
31596;SDS011;18201;50.978;7.034;2023-02-15T10:30:42;25.35;;;17.55;;
31596;SDS011;18201;50.978;7.034;2023-02-15T10:31:23;25.45;;;18.67;;
31596;SDS011;18201;50.978;7.034;2023-02-15T10:31:58;24.63;;;17.95;;
31596;SDS011;18201;50.978;7.034;2023-02-15T10:32:37;24.50;;;17.98;;
31596;SDS011;18201;50.978;7.034;2023-02-15T10:33:25;25.17;;;18.05;;
31596;SDS011;18201;50.978;7.034;2023-02-15T10:34:14;25.27;;;17.50;;
31596;SDS011;18201;50.978;7.034;2023-02-15T10:34:47;25.30;;;18.33;;
31596;SDS011;18201;50.978;7.034;2023-02-15T10:35:24;22.23;;;16.65;;
31596;SDS011;18201;50.978;7.034;2023-02-15T10:36:05;27.25;;;18.48;;
31596;SDS011;18201;50.978;7.034;2023-02-15T10:36:58;24.10;;;17.15;;
31596;SDS011;18201;50.978;7.034;2023-02-15T10:37:47;28.35;;;16.60;;
31596;SDS011;18201;50.978;7.034;2023-02-15T10:38:28;22.13;;;16.63;;
31596;SDS011;18201;50.978;7.034;2023-02-15T10:39:06;24.75;;;17.08;;
31596;SDS011;18201;50.978;7.034;2023-02-15T10:39:50;24.67;;;16.73;;
31596;SDS011;18201;50.978;7.034;2023-02-15T10:40:32;24.45;;;17.08;;
31596;SDS011;18201;50.978;7.034;2023-02-15T10:41:17;22.02;;;16.92;;
31596;SDS011;18201;50.978;7.034;2023-02-15T10:42:02;22.55;;;16.02;;
31596;SDS011;18201;50.978;7.034;2023-02-15T10:42:43;26.23;;;17.67;;
31596;SDS011;18201;50.978;7.034;2023-02-15T10:43:29;24.35;;;16.70;;
31596;SDS011;18201;50.978;7.034;2023-02-15T10:44:19;18.20;;;12.30;;
31596;SDS011;18201;50.978;7.034;2023-02-15T10:45:06;21.63;;;16.08;;
31596;SDS011;18201;50.978;7.034;2023-02-15T10:45:49;26.65;;;16.77;;
31596;SDS011;18201;50.978;7.034;2023-02-15T10:46:39;24.02;;;16.90;;
31596;SDS011;18201;50.978;7.034;2023-02-15T10:47:31;25.77;;;17.33;;
31596;SDS011;18201;50.978;7.034;2023-02-15T10:48:16;24.58;;;16.95;;
31596;SDS011;18201;50.978;7.034;2023-02-15T10:50:06;23.35;;;16.45;;
31596;SDS011;18201;50.978;7.034;2023-02-15T10:50:47;24.27;;;16.42;;
31596;SDS011;18201;50.978;7.034;2023-02-15T10:51:23;22.95;;;17.02;;
31596;SDS011;18201;50.978;7.034;2023-02-15T10:52:07;23.48;;;16.50;;
31596;SDS011;18201;50.978;7.034;2023-02-15T10:52:54;21.90;;;16.35;;
31596;SDS011;18201;50.978;7.034;2023-02-15T10:53:42;24.42;;;16.13;;
31596;SDS011;18201;50.978;7.034;2023-02-15T10:54:34;21.60;;;16.00;;
31596;SDS011;18201;50.978;7.034;2023-02-15T10:55:12;22.73;;;16.02;;
31596;SDS011;18201;50.978;7.034;2023-02-15T10:55:51;23.67;;;16.20;;
31596;SDS011;18201;50.978;7.034;2023-02-15T10:56:29;21.25;;;16.33;;
31596;SDS011;18201;50.978;7.034;2023-02-15T10:57:08;21.05;;;15.15;;
31596;SDS011;18201;50.978;7.034;2023-02-15T10:57:47;22.83;;;16.25;;
31596;SDS011;18201;50.978;7.034;2023-02-15T10:58:31;20.63;;;15.82;;
31596;SDS011;18201;50.978;7.034;2023-02-15T10:59:20;22.02;;;16.75;;
31596;SDS011;18201;50.978;7.034;2023-02-15T11:00:05;21.70;;;16.40;;
31596;SDS011;18201;50.978;7.034;2023-02-15T11:00:41;21.45;;;16.20;;
31596;SDS011;18201;50.978;7.034;2023-02-15T11:01:18;20.08;;;15.30;;
31596;SDS011;18201;50.978;7.034;2023-02-15T11:01:54;20.98;;;15.60;;
31596;SDS011;18201;50.978;7.034;2023-02-15T11:02:34;21.02;;;16.02;;
31596;SDS011;18201;50.978;7.034;2023-02-15T11:03:22;20.30;;;15.68;;
31596;SDS011;18201;50.978;7.034;2023-02-15T11:05:16;23.33;;;16.10;;
31596;SDS011;18201;50.978;7.034;2023-02-15T11:06:05;21.63;;;15.52;;
31596;SDS011;18201;50.978;7.034;2023-02-15T11:06:41;22.45;;;15.43;;
31596;SDS011;18201;50.978;7.034;2023-02-15T11:07:23;21.35;;;14.63;;
31596;SDS011;18201;50.978;7.034;2023-02-15T11:07:56;19.15;;;14.52;;
31596;SDS011;18201;50.978;7.034;2023-02-15T11:08:31;20.58;;;15.30;;
31596;SDS011;18201;50.978;7.034;2023-02-15T11:09:09;20.70;;;14.95;;
31596;SDS011;18201;50.978;7.034;2023-02-15T11:09:46;21.50;;;15.63;;
31596;SDS011;18201;50.978;7.034;2023-02-15T11:10:22;20.17;;;14.73;;
31596;SDS011;18201;50.978;7.034;2023-02-15T11:11:00;19.15;;;14.85;;
31596;SDS011;18201;50.978;7.034;2023-02-15T11:11:38;20.85;;;15.43;;
31596;SDS011;18201;50.978;7.034;2023-02-15T11:12:16;17.77;;;14.73;;
31596;SDS011;18201;50.978;7.034;2023-02-15T11:12:51;21.67;;;15.02;;
31596;SDS011;18201;50.978;7.034;2023-02-15T11:13:24;18.85;;;14.65;;
31596;SDS011;18201;50.978;7.034;2023-02-15T11:13:59;19.65;;;14.90;;
31596;SDS011;18201;50.978;7.034;2023-02-15T11:14:35;20.80;;;14.32;;
31596;SDS011;18201;50.978;7.034;2023-02-15T11:15:14;19.90;;;15.15;;
31596;SDS011;18201;50.978;7.034;2023-02-15T11:15:53;19.40;;;14.73;;
31596;SDS011;18201;50.978;7.034;2023-02-15T11:16:27;20.85;;;14.88;;
31596;SDS011;18201;50.978;7.034;2023-02-15T11:17:04;20.88;;;14.77;;
31596;SDS011;18201;50.978;7.034;2023-02-15T11:17:40;21.00;;;15.88;;
31596;SDS011;18201;50.978;7.034;2023-02-15T11:18:20;17.65;;;13.85;;
31596;SDS011;18201;50.978;7.034;2023-02-15T11:18:56;18.25;;;13.88;;
31596;SDS011;18201;50.978;7.034;2023-02-15T11:19:31;19.88;;;14.77;;
31596;SDS011;18201;50.978;7.034;2023-02-15T11:20:08;19.65;;;14.82;;
31596;SDS011;18201;50.978;7.034;2023-02-15T11:20:49;19.35;;;14.60;;
31596;SDS011;18201;50.978;7.034;2023-02-15T11:21:26;18.90;;;14.68;;
31596;SDS011;18201;50.978;7.034;2023-02-15T11:22:04;19.80;;;14.20;;
31596;SDS011;18201;50.978;7.034;2023-02-15T11:22:36;18.55;;;13.25;;
31596;SDS011;18201;50.978;7.034;2023-02-15T11:23:11;17.30;;;13.70;;
31596;SDS011;18201;50.978;7.034;2023-02-15T11:23:45;17.80;;;13.25;;
31596;SDS011;18201;50.978;7.034;2023-02-15T11:24:19;15.07;;;12.48;;
31596;SDS011;18201;50.978;7.034;2023-02-15T11:24:50;16.65;;;12.95;;
31596;SDS011;18201;50.978;7.034;2023-02-15T11:25:25;15.73;;;13.32;;
31596;SDS011;18201;50.978;7.034;2023-02-15T11:25:58;17.45;;;12.68;;
31596;SDS011;18201;50.978;7.034;2023-02-15T11:26:34;23.55;;;12.45;;
31596;SDS011;18201;50.978;7.034;2023-02-15T11:27:15;17.85;;;13.23;;
31596;SDS011;18201;50.978;7.034;2023-02-15T11:27:50;15.70;;;12.70;;
31596;SDS011;18201;50.978;7.034;2023-02-15T11:28:24;15.90;;;11.93;;
31596;SDS011;18201;50.978;7.034;2023-02-15T11:29:01;15.00;;;12.73;;
31596;SDS011;18201;50.978;7.034;2023-02-15T11:29:40;14.93;;;12.35;;
31596;SDS011;18201;50.978;7.034;2023-02-15T11:30:19;15.07;;;13.02;;
31596;SDS011;18201;50.978;7.034;2023-02-15T11:30:54;17.35;;;12.45;;
31596;SDS011;18201;50.978;7.034;2023-02-15T11:31:40;13.07;;;11.68;;
31596;SDS011;18201;50.978;7.034;2023-02-15T11:32:14;14.63;;;11.80;;
31596;SDS011;18201;50.978;7.034;2023-02-15T11:32:51;16.35;;;12.48;;
31596;SDS011;18201;50.978;7.034;2023-02-15T11:33:26;12.00;;;10.75;;
31596;SDS011;18201;50.978;7.034;2023-02-15T11:34:03;11.98;;;10.77;;
31596;SDS011;18201;50.978;7.034;2023-02-15T11:34:44;13.43;;;11.10;;
31596;SDS011;18201;50.978;7.034;2023-02-15T11:35:27;12.38;;;11.15;;
31596;SDS011;18201;50.978;7.034;2023-02-15T11:36:03;13.20;;;11.57;;
31596;SDS011;18201;50.978;7.034;2023-02-15T11:36:40;11.88;;;10.65;;
31596;SDS011;18201;50.978;7.034;2023-02-15T11:37:15;12.52;;;11.05;;
31596;SDS011;18201;50.978;7.034;2023-02-15T11:37:50;12.35;;;10.98;;
31596;SDS011;18201;50.978;7.034;2023-02-15T11:38:26;12.30;;;11.02;;
31596;SDS011;18201;50.978;7.034;2023-02-15T11:39:05;11.57;;;10.38;;
31596;SDS011;18201;50.978;7.034;2023-02-15T11:39:41;11.32;;;10.00;;
31596;SDS011;18201;50.978;7.034;2023-02-15T11:40:17;13.10;;;11.77;;
31596;SDS011;18201;50.978;7.034;2023-02-15T11:40:51;12.10;;;10.80;;
31596;SDS011;18201;50.978;7.034;2023-02-15T11:41:27;14.63;;;10.30;;
31596;SDS011;18201;50.978;7.034;2023-02-15T11:42:06;10.95;;;9.85;;
31596;SDS011;18201;50.978;7.034;2023-02-15T11:42:45;12.30;;;10.98;;
31596;SDS011;18201;50.978;7.034;2023-02-15T11:43:20;12.38;;;11.18;;
31596;SDS011;18201;50.978;7.034;2023-02-15T11:43:56;12.48;;;10.57;;
31596;SDS011;18201;50.978;7.034;2023-02-15T11:44:34;11.55;;;10.38;;
31596;SDS011;18201;50.978;7.034;2023-02-15T11:45:16;11.88;;;10.18;;
31596;SDS011;18201;50.978;7.034;2023-02-15T11:45:56;11.50;;;10.40;;
31596;SDS011;18201;50.978;7.034;2023-02-15T11:46:27;13.27;;;10.60;;
31596;SDS011;18201;50.978;7.034;2023-02-15T11:46:58;12.30;;;9.70;;
31596;SDS011;18201;50.978;7.034;2023-02-15T11:47:31;12.23;;;11.02;;
31596;SDS011;18201;50.978;7.034;2023-02-15T11:48:05;12.02;;;10.50;;
31596;SDS011;18201;50.978;7.034;2023-02-15T11:48:40;12.13;;;10.88;;
31596;SDS011;18201;50.978;7.034;2023-02-15T11:49:19;11.50;;;10.45;;
31596;SDS011;18201;50.978;7.034;2023-02-15T11:49:52;12.98;;;11.57;;
31596;SDS011;18201;50.978;7.034;2023-02-15T11:50:25;12.25;;;11.05;;
31596;SDS011;18201;50.978;7.034;2023-02-15T11:50:57;12.10;;;10.77;;
31596;SDS011;18201;50.978;7.034;2023-02-15T11:51:30;11.32;;;9.93;;
31596;SDS011;18201;50.978;7.034;2023-02-15T11:52:01;11.70;;;10.50;;
31596;SDS011;18201;50.978;7.034;2023-02-15T11:52:36;10.88;;;9.77;;
31596;SDS011;18201;50.978;7.034;2023-02-15T11:53:09;12.15;;;10.90;;
31596;SDS011;18201;50.978;7.034;2023-02-15T11:53:44;11.18;;;9.98;;
31596;SDS011;18201;50.978;7.034;2023-02-15T11:54:17;10.75;;;9.65;;
31596;SDS011;18201;50.978;7.034;2023-02-15T11:54:51;13.43;;;11.00;;
31596;SDS011;18201;50.978;7.034;2023-02-15T11:55:22;11.77;;;10.57;;
31596;SDS011;18201;50.978;7.034;2023-02-15T11:55:55;11.43;;;10.40;;
31596;SDS011;18201;50.978;7.034;2023-02-15T11:56:26;10.73;;;9.63;;
31596;SDS011;18201;50.978;7.034;2023-02-15T11:56:59;11.52;;;10.32;;
31596;SDS011;18201;50.978;7.034;2023-02-15T11:57:41;10.88;;;9.88;;
31596;SDS011;18201;50.978;7.034;2023-02-15T11:58:25;10.77;;;9.75;;
31596;SDS011;18201;50.978;7.034;2023-02-15T11:59:01;10.38;;;9.35;;
31596;SDS011;18201;50.978;7.034;2023-02-15T11:59:40;10.25;;;9.25;;
31596;SDS011;18201;50.978;7.034;2023-02-15T12:00:14;10.48;;;9.48;;
31596;SDS011;18201;50.978;7.034;2023-02-15T12:01:28;10.57;;;9.13;;
31596;SDS011;18201;50.978;7.034;2023-02-15T12:02:02;11.73;;;10.52;;
31596;SDS011;18201;50.978;7.034;2023-02-15T12:02:46;11.13;;;9.95;;
31596;SDS011;18201;50.978;7.034;2023-02-15T12:03:24;10.52;;;9.45;;
31596;SDS011;18201;50.978;7.034;2023-02-15T12:04:01;10.60;;;9.57;;
31596;SDS011;18201;50.978;7.034;2023-02-15T12:04:38;11.73;;;10.23;;
31596;SDS011;18201;50.978;7.034;2023-02-15T12:05:14;10.15;;;9.15;;
31596;SDS011;18201;50.978;7.034;2023-02-15T12:06:00;10.48;;;9.48;;
31596;SDS011;18201;50.978;7.034;2023-02-15T12:06:35;11.35;;;10.15;;
31596;SDS011;18201;50.978;7.034;2023-02-15T12:07:13;10.32;;;9.30;;
31596;SDS011;18201;50.978;7.034;2023-02-15T12:07:49;10.93;;;9.85;;
31596;SDS011;18201;50.978;7.034;2023-02-15T12:08:24;10.02;;;9.07;;
31596;SDS011;18201;50.978;7.034;2023-02-15T12:09:02;9.63;;;8.75;;
31596;SDS011;18201;50.978;7.034;2023-02-15T12:09:45;9.93;;;9.05;;
31596;SDS011;18201;50.978;7.034;2023-02-15T12:10:22;9.82;;;8.93;;
31596;SDS011;18201;50.978;7.034;2023-02-15T12:10:58;11.10;;;10.00;;
31596;SDS011;18201;50.978;7.034;2023-02-15T12:11:35;10.60;;;9.60;;
31596;SDS011;18201;50.978;7.034;2023-02-15T12:12:20;10.18;;;9.27;;
31596;SDS011;18201;50.978;7.034;2023-02-15T12:13:08;10.80;;;9.30;;
31596;SDS011;18201;50.978;7.034;2023-02-15T12:13:54;9.55;;;8.55;;
31596;SDS011;18201;50.978;7.034;2023-02-15T12:14:27;10.68;;;9.68;;
31596;SDS011;18201;50.978;7.034;2023-02-15T12:16:04;12.73;;;10.05;;
31596;SDS011;18201;50.978;7.034;2023-02-15T12:16:41;11.45;;;10.25;;
31596;SDS011;18201;50.978;7.034;2023-02-15T12:17:15;10.60;;;9.60;;
31596;SDS011;18201;50.978;7.034;2023-02-15T12:17:48;10.00;;;9.10;;
31596;SDS011;18201;50.978;7.034;2023-02-15T12:18:30;10.40;;;9.40;;
31596;SDS011;18201;50.978;7.034;2023-02-15T12:19:10;9.95;;;8.88;;
31596;SDS011;18201;50.978;7.034;2023-02-15T12:19:52;10.60;;;9.60;;
31596;SDS011;18201;50.978;7.034;2023-02-15T12:20:31;11.18;;;9.32;;
31596;SDS011;18201;50.978;7.034;2023-02-15T12:21:05;9.88;;;8.75;;
31596;SDS011;18201;50.978;7.034;2023-02-15T12:21:39;14.43;;;9.05;;
31596;SDS011;18201;50.978;7.034;2023-02-15T12:22:18;9.98;;;9.02;;
31596;SDS011;18201;50.978;7.034;2023-02-15T12:22:54;10.98;;;9.95;;
31596;SDS011;18201;50.978;7.034;2023-02-15T12:23:39;10.95;;;9.85;;
31596;SDS011;18201;50.978;7.034;2023-02-15T12:24:16;11.30;;;9.60;;
31596;SDS011;18201;50.978;7.034;2023-02-15T12:24:52;10.25;;;9.10;;
31596;SDS011;18201;50.978;7.034;2023-02-15T12:25:26;10.48;;;9.48;;
31596;SDS011;18201;50.978;7.034;2023-02-15T12:26:04;12.57;;;9.48;;
31596;SDS011;18201;50.978;7.034;2023-02-15T12:26:35;9.25;;;8.32;;
31596;SDS011;18201;50.978;7.034;2023-02-15T12:27:13;9.95;;;9.05;;
31596;SDS011;18201;50.978;7.034;2023-02-15T12:27:45;10.43;;;9.32;;
31596;SDS011;18201;50.978;7.034;2023-02-15T12:28:23;10.35;;;9.38;;
31596;SDS011;18201;50.978;7.034;2023-02-15T12:28:59;10.43;;;9.43;;
31596;SDS011;18201;50.978;7.034;2023-02-15T12:29:34;13.35;;;9.93;;
31596;SDS011;18201;50.978;7.034;2023-02-15T12:30:15;11.23;;;10.13;;
31596;SDS011;18201;50.978;7.034;2023-02-15T12:30:51;11.18;;;9.95;;
31596;SDS011;18201;50.978;7.034;2023-02-15T12:31:26;11.52;;;9.77;;
31596;SDS011;18201;50.978;7.034;2023-02-15T12:32:01;11.20;;;9.68;;
31596;SDS011;18201;50.978;7.034;2023-02-15T12:32:34;9.63;;;8.73;;
31596;SDS011;18201;50.978;7.034;2023-02-15T12:33:20;11.30;;;9.07;;
31596;SDS011;18201;50.978;7.034;2023-02-15T12:33:57;10.10;;;9.15;;
31596;SDS011;18201;50.978;7.034;2023-02-15T12:34:32;9.82;;;8.77;;
31596;SDS011;18201;50.978;7.034;2023-02-15T12:35:12;10.98;;;9.98;;
31596;SDS011;18201;50.978;7.034;2023-02-15T12:35:50;10.30;;;9.30;;
31596;SDS011;18201;50.978;7.034;2023-02-15T12:36:29;9.70;;;8.70;;
31596;SDS011;18201;50.978;7.034;2023-02-15T12:37:07;9.68;;;8.48;;
31596;SDS011;18201;50.978;7.034;2023-02-15T12:37:51;10.98;;;9.00;;
31596;SDS011;18201;50.978;7.034;2023-02-15T12:38:25;10.15;;;8.80;;
31596;SDS011;18201;50.978;7.034;2023-02-15T12:39:02;11.70;;;9.30;;
31596;SDS011;18201;50.978;7.034;2023-02-15T12:39:36;10.18;;;9.18;;
31596;SDS011;18201;50.978;7.034;2023-02-15T12:40:18;10.57;;;9.50;;
31596;SDS011;18201;50.978;7.034;2023-02-15T12:40:59;10.10;;;9.10;;
31596;SDS011;18201;50.978;7.034;2023-02-15T12:41:32;10.38;;;9.35;;
31596;SDS011;18201;50.978;7.034;2023-02-15T12:42:08;10.68;;;9.63;;
31596;SDS011;18201;50.978;7.034;2023-02-15T12:42:45;9.98;;;8.88;;
31596;SDS011;18201;50.978;7.034;2023-02-15T12:43:24;8.98;;;8.18;;
31596;SDS011;18201;50.978;7.034;2023-02-15T12:44:05;10.23;;;9.23;;
31596;SDS011;18201;50.978;7.034;2023-02-15T12:44:38;9.38;;;8.38;;
31596;SDS011;18201;50.978;7.034;2023-02-15T12:45:23;10.05;;;8.75;;
31596;SDS011;18201;50.978;7.034;2023-02-15T12:46:04;9.73;;;8.75;;
31596;SDS011;18201;50.978;7.034;2023-02-15T12:46:55;10.50;;;9.50;;
31596;SDS011;18201;50.978;7.034;2023-02-15T12:47:29;9.48;;;8.45;;
31596;SDS011;18201;50.978;7.034;2023-02-15T12:48:08;10.27;;;9.13;;
31596;SDS011;18201;50.978;7.034;2023-02-15T12:48:45;9.80;;;8.90;;
31596;SDS011;18201;50.978;7.034;2023-02-15T12:49:17;10.40;;;9.40;;
31596;SDS011;18201;50.978;7.034;2023-02-15T12:50:03;9.25;;;8.35;;
31596;SDS011;18201;50.978;7.034;2023-02-15T12:50:39;9.48;;;8.52;;
31596;SDS011;18201;50.978;7.034;2023-02-15T12:51:13;10.40;;;9.40;;
31596;SDS011;18201;50.978;7.034;2023-02-15T12:51:46;9.98;;;8.85;;
31596;SDS011;18201;50.978;7.034;2023-02-15T12:52:23;10.52;;;9.43;;
31596;SDS011;18201;50.978;7.034;2023-02-15T12:53:06;10.10;;;9.10;;
31596;SDS011;18201;50.978;7.034;2023-02-15T12:53:39;9.93;;;8.93;;
31596;SDS011;18201;50.978;7.034;2023-02-15T12:54:17;10.88;;;9.32;;
31596;SDS011;18201;50.978;7.034;2023-02-15T12:54:58;11.40;;;10.30;;
31596;SDS011;18201;50.978;7.034;2023-02-15T12:55:51;9.90;;;8.90;;
31596;SDS011;18201;50.978;7.034;2023-02-15T12:56:26;11.13;;;10.02;;
31596;SDS011;18201;50.978;7.034;2023-02-15T12:56:57;10.77;;;9.68;;
31596;SDS011;18201;50.978;7.034;2023-02-15T12:57:29;10.88;;;9.88;;
31596;SDS011;18201;50.978;7.034;2023-02-15T12:58:06;12.65;;;9.50;;
31596;SDS011;18201;50.978;7.034;2023-02-15T12:58:39;10.70;;;9.60;;
31596;SDS011;18201;50.978;7.034;2023-02-15T12:59:13;11.90;;;10.25;;
31596;SDS011;18201;50.978;7.034;2023-02-15T12:59:49;11.52;;;10.43;;
31596;SDS011;18201;50.978;7.034;2023-02-15T13:00:25;10.55;;;9.45;;
31596;SDS011;18201;50.978;7.034;2023-02-15T13:01:09;10.85;;;9.73;;
31596;SDS011;18201;50.978;7.034;2023-02-15T13:01:43;11.05;;;9.70;;
31596;SDS011;18201;50.978;7.034;2023-02-15T13:02:19;10.25;;;9.00;;
31596;SDS011;18201;50.978;7.034;2023-02-15T13:02:53;12.07;;;10.05;;
31596;SDS011;18201;50.978;7.034;2023-02-15T13:03:27;12.02;;;9.63;;
31596;SDS011;18201;50.978;7.034;2023-02-15T13:03:58;9.75;;;8.85;;
31596;SDS011;18201;50.978;7.034;2023-02-15T13:04:33;11.23;;;9.93;;
31596;SDS011;18201;50.978;7.034;2023-02-15T13:05:05;11.80;;;10.48;;
31596;SDS011;18201;50.978;7.034;2023-02-15T13:05:49;11.35;;;10.10;;
31596;SDS011;18201;50.978;7.034;2023-02-15T13:06:22;10.93;;;9.82;;
31596;SDS011;18201;50.978;7.034;2023-02-15T13:06:54;11.88;;;10.55;;
31596;SDS011;18201;50.978;7.034;2023-02-15T13:07:29;10.43;;;9.32;;
31596;SDS011;18201;50.978;7.034;2023-02-15T13:08:02;14.93;;;10.35;;
31596;SDS011;18201;50.978;7.034;2023-02-15T13:08:46;15.52;;;10.18;;
31596;SDS011;18201;50.978;7.034;2023-02-15T13:09:20;11.05;;;9.88;;
31596;SDS011;18201;50.978;7.034;2023-02-15T13:10:00;11.13;;;9.57;;
31596;SDS011;18201;50.978;7.034;2023-02-15T13:10:33;11.00;;;9.90;;
31596;SDS011;18201;50.978;7.034;2023-02-15T13:11:08;11.38;;;9.27;;
31596;SDS011;18201;50.978;7.034;2023-02-15T13:11:41;11.48;;;9.90;;
31596;SDS011;18201;50.978;7.034;2023-02-15T13:12:17;10.43;;;9.32;;
31596;SDS011;18201;50.978;7.034;2023-02-15T13:12:51;11.43;;;10.23;;
31596;SDS011;18201;50.978;7.034;2023-02-15T13:13:24;9.68;;;8.77;;
31596;SDS011;18201;50.978;7.034;2023-02-15T13:13:58;11.73;;;10.52;;
31596;SDS011;18201;50.978;7.034;2023-02-15T13:14:33;13.73;;;9.68;;
31596;SDS011;18201;50.978;7.034;2023-02-15T13:15:22;10.90;;;9.80;;
31596;SDS011;18201;50.978;7.034;2023-02-15T13:16:04;13.88;;;10.05;;
31596;SDS011;18201;50.978;7.034;2023-02-15T13:16:39;14.18;;;10.15;;
31596;SDS011;18201;50.978;7.034;2023-02-15T13:17:13;11.30;;;9.57;;
31596;SDS011;18201;50.978;7.034;2023-02-15T13:17:47;11.45;;;10.25;;
31596;SDS011;18201;50.978;7.034;2023-02-15T13:18:19;12.20;;;10.68;;
31596;SDS011;18201;50.978;7.034;2023-02-15T13:19:01;11.15;;;10.05;;
31596;SDS011;18201;50.978;7.034;2023-02-15T13:19:37;11.63;;;10.38;;
31596;SDS011;18201;50.978;7.034;2023-02-15T13:20:13;10.48;;;9.45;;
31596;SDS011;18201;50.978;7.034;2023-02-15T13:20:49;13.20;;;10.45;;
31596;SDS011;18201;50.978;7.034;2023-02-15T13:21:22;12.85;;;9.82;;
31596;SDS011;18201;50.978;7.034;2023-02-15T13:21:56;11.70;;;10.23;;
31596;SDS011;18201;50.978;7.034;2023-02-15T13:22:32;15.23;;;10.35;;
31596;SDS011;18201;50.978;7.034;2023-02-15T13:23:17;14.35;;;10.77;;
31596;SDS011;18201;50.978;7.034;2023-02-15T13:23:55;11.18;;;10.05;;
31596;SDS011;18201;50.978;7.034;2023-02-15T13:24:32;10.77;;;9.68;;
31596;SDS011;18201;50.978;7.034;2023-02-15T13:25:10;11.32;;;10.10;;
31596;SDS011;18201;50.978;7.034;2023-02-15T13:25:45;12.93;;;9.88;;
31596;SDS011;18201;50.978;7.034;2023-02-15T13:26:21;11.27;;;10.07;;
31596;SDS011;18201;50.978;7.034;2023-02-15T13:26:56;11.15;;;10.05;;
31596;SDS011;18201;50.978;7.034;2023-02-15T13:27:30;12.05;;;10.18;;
31596;SDS011;18201;50.978;7.034;2023-02-15T13:28:10;12.15;;;9.93;;
31596;SDS011;18201;50.978;7.034;2023-02-15T13:28:45;10.82;;;9.73;;
31596;SDS011;18201;50.978;7.034;2023-02-15T13:29:21;12.30;;;10.00;;
31596;SDS011;18201;50.978;7.034;2023-02-15T13:29:56;12.13;;;10.35;;
31596;SDS011;18201;50.978;7.034;2023-02-15T13:30:32;11.68;;;10.48;;
31596;SDS011;18201;50.978;7.034;2023-02-15T13:31:07;11.93;;;10.35;;
31596;SDS011;18201;50.978;7.034;2023-02-15T13:31:44;12.77;;;9.52;;
31596;SDS011;18201;50.978;7.034;2023-02-15T13:32:20;15.40;;;11.15;;
31596;SDS011;18201;50.978;7.034;2023-02-15T13:32:57;11.63;;;10.32;;
31596;SDS011;18201;50.978;7.034;2023-02-15T13:33:32;11.10;;;10.00;;
31596;SDS011;18201;50.978;7.034;2023-02-15T13:34:07;12.00;;;9.95;;
31596;SDS011;18201;50.978;7.034;2023-02-15T13:34:43;15.32;;;10.63;;
31596;SDS011;18201;50.978;7.034;2023-02-15T13:35:14;11.35;;;9.88;;
31596;SDS011;18201;50.978;7.034;2023-02-15T13:35:49;11.27;;;9.07;;
31596;SDS011;18201;50.978;7.034;2023-02-15T13:36:29;13.50;;;11.20;;
31596;SDS011;18201;50.978;7.034;2023-02-15T13:37:13;14.20;;;10.95;;
31596;SDS011;18201;50.978;7.034;2023-02-15T13:37:52;14.38;;;10.35;;
31596;SDS011;18201;50.978;7.034;2023-02-15T13:38:40;12.95;;;10.52;;
31596;SDS011;18201;50.978;7.034;2023-02-15T13:39:24;11.68;;;9.50;;
31596;SDS011;18201;50.978;7.034;2023-02-15T13:40:04;11.55;;;10.35;;
31596;SDS011;18201;50.978;7.034;2023-02-15T13:40:43;15.07;;;10.98;;
31596;SDS011;18201;50.978;7.034;2023-02-15T13:41:20;13.50;;;11.38;;
31596;SDS011;18201;50.978;7.034;2023-02-15T13:41:58;12.50;;;11.10;;
31596;SDS011;18201;50.978;7.034;2023-02-15T13:42:38;13.13;;;11.00;;
31596;SDS011;18201;50.978;7.034;2023-02-15T13:43:15;11.40;;;10.00;;
31596;SDS011;18201;50.978;7.034;2023-02-15T13:43:59;15.05;;;11.35;;
31596;SDS011;18201;50.978;7.034;2023-02-15T13:44:53;12.05;;;10.75;;
31596;SDS011;18201;50.978;7.034;2023-02-15T13:45:36;13.43;;;11.38;;
31596;SDS011;18201;50.978;7.034;2023-02-15T13:46:14;12.82;;;11.50;;
31596;SDS011;18201;50.978;7.034;2023-02-15T13:46:58;13.88;;;11.60;;
31596;SDS011;18201;50.978;7.034;2023-02-15T13:47:43;12.23;;;10.63;;
31596;SDS011;18201;50.978;7.034;2023-02-15T13:48:23;13.60;;;10.50;;
31596;SDS011;18201;50.978;7.034;2023-02-15T13:49:06;13.45;;;10.40;;
31596;SDS011;18201;50.978;7.034;2023-02-15T13:49:52;11.15;;;9.98;;
31596;SDS011;18201;50.978;7.034;2023-02-15T13:51:40;12.93;;;10.55;;
31596;SDS011;18201;50.978;7.034;2023-02-15T13:52:18;14.40;;;11.60;;
31596;SDS011;18201;50.978;7.034;2023-02-15T13:52:58;12.55;;;10.73;;
31596;SDS011;18201;50.978;7.034;2023-02-15T13:53:48;14.77;;;10.82;;
31596;SDS011;18201;50.978;7.034;2023-02-15T13:54:48;15.65;;;11.80;;
31596;SDS011;18201;50.978;7.034;2023-02-15T13:55:37;14.00;;;11.90;;
31596;SDS011;18201;50.978;7.034;2023-02-15T13:56:16;16.38;;;11.25;;
31596;SDS011;18201;50.978;7.034;2023-02-15T13:56:59;13.32;;;11.27;;
31596;SDS011;18201;50.978;7.034;2023-02-15T13:57:48;13.68;;;11.13;;
31596;SDS011;18201;50.978;7.034;2023-02-15T13:59:46;13.32;;;11.38;;
31596;SDS011;18201;50.978;7.034;2023-02-15T14:00:29;12.43;;;11.13;;
31596;SDS011;18201;50.978;7.034;2023-02-15T14:01:09;12.18;;;10.68;;
31596;SDS011;18201;50.978;7.034;2023-02-15T14:01:45;13.70;;;10.85;;
31596;SDS011;18201;50.978;7.034;2023-02-15T14:02:30;13.80;;;10.40;;
31596;SDS011;18201;50.978;7.034;2023-02-15T14:03:36;18.63;;;12.25;;
31596;SDS011;18201;50.978;7.034;2023-02-15T14:04:40;13.55;;;10.75;;
31596;SDS011;18201;50.978;7.034;2023-02-15T14:05:26;16.00;;;10.48;;
31596;SDS011;18201;50.978;7.034;2023-02-15T14:06:08;17.70;;;10.90;;
31596;SDS011;18201;50.978;7.034;2023-02-15T14:07:03;16.73;;;11.57;;
31596;SDS011;18201;50.978;7.034;2023-02-15T14:07:52;15.70;;;11.65;;
31596;SDS011;18201;50.978;7.034;2023-02-15T14:08:36;13.75;;;10.63;;
31596;SDS011;18201;50.978;7.034;2023-02-15T14:09:20;16.55;;;10.95;;
31596;SDS011;18201;50.978;7.034;2023-02-15T14:10:03;14.70;;;10.73;;
31596;SDS011;18201;50.978;7.034;2023-02-15T14:10:54;15.50;;;11.40;;
31596;SDS011;18201;50.978;7.034;2023-02-15T14:11:33;12.75;;;11.27;;
31596;SDS011;18201;50.978;7.034;2023-02-15T14:12:16;13.77;;;11.63;;
31596;SDS011;18201;50.978;7.034;2023-02-15T14:12:59;14.32;;;11.00;;
31596;SDS011;18201;50.978;7.034;2023-02-15T14:13:57;16.67;;;11.48;;
31596;SDS011;18201;50.978;7.034;2023-02-15T14:15:03;12.50;;;10.95;;
31596;SDS011;18201;50.978;7.034;2023-02-15T14:15:41;13.13;;;11.73;;
31596;SDS011;18201;50.978;7.034;2023-02-15T14:16:20;12.80;;;11.32;;
31596;SDS011;18201;50.978;7.034;2023-02-15T14:17:03;14.15;;;11.57;;
31596;SDS011;18201;50.978;7.034;2023-02-15T14:17:47;14.38;;;12.32;;
31596;SDS011;18201;50.978;7.034;2023-02-15T14:18:26;13.35;;;11.38;;
31596;SDS011;18201;50.978;7.034;2023-02-15T14:19:10;15.38;;;11.73;;